Historyczne dane pomiarowe

Dodano dane terminowe – wersja testowa.

Dane z okresu 1951-2019

Wersja bazy: 1.34 [2019-03-16, lista zmian], aktualizacja planowana na 2019-04-15

Dane meteo z obszaru Polski uzyskane na podstawie danych udostępnionych przez Instytut Meteorologii i Gospodarki Wodnej – Państwowy Instytut Badawczy.

 

Wybierz Datę:    

       

TemperaturaWilgotnośćZachmurzenieWiatrCiśnienieWidzialnośćZjawiska
 Data    tng td wb rh cc ccl cl cm ch dir g1 g2 mslp ppp      
1999-07-17 00:00:00 16.3--- 10.1 12.867wxwx2wx--1020.1 997.2 0.0---wx
1999-07-17 01:00:00 16.1--- 10.1 12.767wxwx2wx--1020.2 997.3----wx
1999-07-17 02:00:00 15.0--- 10.6 12.575wxwxwx0wx--1020.2 997.2----wx
1999-07-17 03:00:00 13.2--- 9.8 11.380wxwxwx2wx--1020.1 997.0----wx
1999-07-17 04:00:00 11.9--- 9.9 10.888wxwxwx1wx--1020.3 997.1----wx
1999-07-17 05:00:00 12.6--- 10.6 11.588wxwxwxwx1wx--1020.5 997.3----wx
1999-07-17 06:00:00 15.9--- 12.1 13.778wxwxwxwx1wx--1020.6 997.7 0.0---wx
1999-07-17 07:00:00 16.5--- 11.9 13.874wxwxwxwx1wx--1021.0 998.1----wx
1999-07-17 08:00:00 19.7--- 13.3 15.866wxwxwxwx1wx--1020.6 998.0----wx
1999-07-17 09:00:00 21.1--- 9.8 14.649wxwxwxwx3wx--1020.4 997.9----wx
1999-07-17 10:00:00 21.7--- 9.5 14.746wxwxwxwx3wx--1020.3 997.8----wx
1999-07-17 11:00:00 22.5--- 9.3 14.943wxwxwxwx3wx--1019.9 997.5----wx
1999-07-17 12:00:00 23.4--- 10.1 15.643wxwxwxwx4wx--1019.7 997.4 0.0---wx
1999-07-17 13:00:00 23.4--- 9.6 15.442wxwxwxwx3wx--1019.5 997.2----wx
1999-07-17 14:00:00 23.9--- 9.6 15.640wxwxwxwx3wx--1019.4 997.1----wx
1999-07-17 15:00:00 23.5--- 9.8 15.542wxwxwxwx3wx--1019.2 996.9----wx
1999-07-17 16:00:00 24.0--- 10.2 15.942wxwxwxwx3wx--1018.9 996.6----wx
1999-07-17 17:00:00 23.5--- 9.8 15.542wxwxwxwx3wx--1018.9 996.6----wx
1999-07-17 18:00:00 23.1--- 11.8 16.349wxwxwx1wx--1018.9 996.6 0.0---wx
1999-07-17 19:00:00 21.4--- 11.7 15.654wxwxwxwx1wx--1019.3 996.8----wx
1999-07-17 20:00:00 20.5--- 11.5 15.256wxwxwxwx1wx--1019.6 997.0----wx
1999-07-17 21:00:00 20.2--- 11.6 15.158wxwxwxwx1wx--1019.5 996.9----wx
1999-07-17 22:00:00 19.7--- 11.2 14.758wxwx1wx--1019.5 996.9----wx
1999-07-17 23:00:00 18.9--- 10.8 14.259wxwx1wx--1019.7 997.0----wx

 

Źródłem pochodzenia danych jest Instytut Meteorologii i Gospodarki Wodnej – Państwowy Instytut Badawczy. Dane Instytutu Meteorologii i Gospodarki Wodnej – Państwowego Instytutu Badawczego zostały przetworzone.

Dane źródłowe można odnaleźć na stronie https://dane.imgw.pl